sensor_id;sensor_type;location;lat;lon;timestamp;P1;durP1;ratioP1;P2;durP2;ratioP2
1563;SDS011;775;51.958;7.976;2023-08-20T00:01:19;23.23;;;10.40;;
1563;SDS011;775;51.958;7.976;2023-08-20T00:03:48;23.40;;;10.70;;
1563;SDS011;775;51.958;7.976;2023-08-20T00:06:17;23.20;;;10.97;;
1563;SDS011;775;51.958;7.976;2023-08-20T00:08:44;20.93;;;9.37;;
1563;SDS011;775;51.958;7.976;2023-08-20T00:11:11;24.20;;;9.20;;
1563;SDS011;775;51.958;7.976;2023-08-20T00:13:38;21.73;;;9.77;;
1563;SDS011;775;51.958;7.976;2023-08-20T00:16:06;22.33;;;9.47;;
1563;SDS011;775;51.958;7.976;2023-08-20T00:18:34;21.27;;;9.47;;
1563;SDS011;775;51.958;7.976;2023-08-20T00:21:01;20.80;;;9.07;;
1563;SDS011;775;51.958;7.976;2023-08-20T00:23:31;20.83;;;9.23;;
1563;SDS011;775;51.958;7.976;2023-08-20T00:25:58;21.77;;;9.13;;
1563;SDS011;775;51.958;7.976;2023-08-20T00:28:27;21.80;;;8.17;;
1563;SDS011;775;51.958;7.976;2023-08-20T00:30:54;22.90;;;9.80;;
1563;SDS011;775;51.958;7.976;2023-08-20T00:33:21;21.03;;;9.30;;
1563;SDS011;775;51.958;7.976;2023-08-20T00:35:48;23.90;;;8.30;;
1563;SDS011;775;51.958;7.976;2023-08-20T00:38:15;23.33;;;9.10;;
1563;SDS011;775;51.958;7.976;2023-08-20T00:40:44;20.97;;;8.63;;
1563;SDS011;775;51.958;7.976;2023-08-20T00:43:11;21.50;;;7.73;;
1563;SDS011;775;51.958;7.976;2023-08-20T00:45:39;24.00;;;8.23;;
1563;SDS011;775;51.958;7.976;2023-08-20T00:48:07;20.60;;;8.13;;
1563;SDS011;775;51.958;7.976;2023-08-20T00:50:36;18.50;;;7.40;;
1563;SDS011;775;51.958;7.976;2023-08-20T00:53:04;18.47;;;7.40;;
1563;SDS011;775;51.958;7.976;2023-08-20T00:55:31;22.40;;;8.70;;
1563;SDS011;775;51.958;7.976;2023-08-20T00:57:59;20.93;;;7.60;;
1563;SDS011;775;51.958;7.976;2023-08-20T01:00:26;19.07;;;7.60;;
1563;SDS011;775;51.958;7.976;2023-08-20T01:02:54;20.97;;;7.70;;
1563;SDS011;775;51.958;7.976;2023-08-20T01:05:21;19.77;;;8.00;;
1563;SDS011;775;51.958;7.976;2023-08-20T01:07:58;21.47;;;8.10;;
1563;SDS011;775;51.958;7.976;2023-08-20T01:10:31;22.27;;;8.97;;
1563;SDS011;775;51.958;7.976;2023-08-20T01:13:02;19.47;;;7.77;;
1563;SDS011;775;51.958;7.976;2023-08-20T01:15:29;23.40;;;9.20;;
1563;SDS011;775;51.958;7.976;2023-08-20T01:17:56;19.87;;;8.33;;
1563;SDS011;775;51.958;7.976;2023-08-20T01:20:24;20.93;;;7.70;;
1563;SDS011;775;51.958;7.976;2023-08-20T01:22:59;18.33;;;7.53;;
1563;SDS011;775;51.958;7.976;2023-08-20T01:25:39;22.07;;;7.53;;
1563;SDS011;775;51.958;7.976;2023-08-20T01:28:20;18.50;;;7.40;;
1563;SDS011;775;51.958;7.976;2023-08-20T01:30:47;20.63;;;6.50;;
1563;SDS011;775;51.958;7.976;2023-08-20T01:33:15;18.23;;;5.73;;
1563;SDS011;775;51.958;7.976;2023-08-20T01:35:42;19.23;;;6.97;;
1563;SDS011;775;51.958;7.976;2023-08-20T01:38:10;18.20;;;7.20;;
1563;SDS011;775;51.958;7.976;2023-08-20T01:40:37;20.60;;;7.87;;
1563;SDS011;775;51.958;7.976;2023-08-20T01:43:04;18.10;;;7.10;;
1563;SDS011;775;51.958;7.976;2023-08-20T01:45:32;19.63;;;7.13;;
1563;SDS011;775;51.958;7.976;2023-08-20T01:47:59;17.50;;;6.53;;
1563;SDS011;775;51.958;7.976;2023-08-20T01:50:26;16.70;;;6.07;;
1563;SDS011;775;51.958;7.976;2023-08-20T01:52:53;18.50;;;6.73;;
1563;SDS011;775;51.958;7.976;2023-08-20T01:55:21;17.37;;;6.63;;
1563;SDS011;775;51.958;7.976;2023-08-20T01:57:48;19.50;;;7.20;;
1563;SDS011;775;51.958;7.976;2023-08-20T02:00:15;20.10;;;7.33;;
1563;SDS011;775;51.958;7.976;2023-08-20T02:02:43;21.10;;;7.27;;
1563;SDS011;775;51.958;7.976;2023-08-20T02:05:10;23.70;;;7.27;;
1563;SDS011;775;51.958;7.976;2023-08-20T02:07:38;19.97;;;7.40;;
1563;SDS011;775;51.958;7.976;2023-08-20T02:10:06;18.73;;;6.63;;
1563;SDS011;775;51.958;7.976;2023-08-20T02:12:33;21.10;;;7.27;;
1563;SDS011;775;51.958;7.976;2023-08-20T02:15:01;19.27;;;7.40;;
1563;SDS011;775;51.958;7.976;2023-08-20T02:17:28;18.00;;;6.90;;
1563;SDS011;775;51.958;7.976;2023-08-20T02:19:57;18.00;;;6.50;;
1563;SDS011;775;51.958;7.976;2023-08-20T02:22:24;26.47;;;7.17;;
1563;SDS011;775;51.958;7.976;2023-08-20T02:24:51;22.57;;;8.40;;
1563;SDS011;775;51.958;7.976;2023-08-20T02:27:18;20.40;;;8.30;;
1563;SDS011;775;51.958;7.976;2023-08-20T02:29:45;18.80;;;7.50;;
1563;SDS011;775;51.958;7.976;2023-08-20T02:32:12;17.57;;;7.13;;
1563;SDS011;775;51.958;7.976;2023-08-20T02:34:39;20.77;;;8.13;;
1563;SDS011;775;51.958;7.976;2023-08-20T02:37:07;18.87;;;7.40;;
1563;SDS011;775;51.958;7.976;2023-08-20T02:39:34;18.97;;;7.40;;
1563;SDS011;775;51.958;7.976;2023-08-20T02:42:02;19.23;;;6.77;;
1563;SDS011;775;51.958;7.976;2023-08-20T02:44:30;17.13;;;6.70;;
1563;SDS011;775;51.958;7.976;2023-08-20T02:46:57;18.53;;;7.70;;
1563;SDS011;775;51.958;7.976;2023-08-20T02:49:25;18.10;;;6.50;;
1563;SDS011;775;51.958;7.976;2023-08-20T02:51:52;23.60;;;7.70;;
1563;SDS011;775;51.958;7.976;2023-08-20T02:54:20;23.10;;;7.67;;
1563;SDS011;775;51.958;7.976;2023-08-20T02:56:48;19.03;;;7.67;;
1563;SDS011;775;51.958;7.976;2023-08-20T02:59:15;22.50;;;7.60;;
1563;SDS011;775;51.958;7.976;2023-08-20T03:01:42;21.00;;;8.73;;
1563;SDS011;775;51.958;7.976;2023-08-20T03:04:09;21.20;;;7.97;;
1563;SDS011;775;51.958;7.976;2023-08-20T03:06:36;18.30;;;6.60;;
1563;SDS011;775;51.958;7.976;2023-08-20T03:09:03;19.43;;;7.17;;
1563;SDS011;775;51.958;7.976;2023-08-20T03:11:32;19.00;;;7.70;;
1563;SDS011;775;51.958;7.976;2023-08-20T03:13:59;20.40;;;7.10;;
1563;SDS011;775;51.958;7.976;2023-08-20T03:16:26;21.67;;;7.50;;
1563;SDS011;775;51.958;7.976;2023-08-20T03:18:53;22.50;;;8.17;;
1563;SDS011;775;51.958;7.976;2023-08-20T03:21:20;20.47;;;7.07;;
1563;SDS011;775;51.958;7.976;2023-08-20T03:23:47;19.57;;;7.70;;
1563;SDS011;775;51.958;7.976;2023-08-20T03:26:14;20.53;;;7.83;;
1563;SDS011;775;51.958;7.976;2023-08-20T03:28:43;21.37;;;8.17;;
1563;SDS011;775;51.958;7.976;2023-08-20T03:31:10;21.10;;;7.80;;
1563;SDS011;775;51.958;7.976;2023-08-20T03:33:37;19.70;;;7.60;;
1563;SDS011;775;51.958;7.976;2023-08-20T03:36:04;19.83;;;7.47;;
1563;SDS011;775;51.958;7.976;2023-08-20T03:38:31;21.80;;;8.17;;
1563;SDS011;775;51.958;7.976;2023-08-20T03:40:58;21.23;;;7.77;;
1563;SDS011;775;51.958;7.976;2023-08-20T03:43:25;18.17;;;7.20;;
1563;SDS011;775;51.958;7.976;2023-08-20T03:45:56;20.43;;;7.87;;
1563;SDS011;775;51.958;7.976;2023-08-20T03:48:24;22.43;;;8.27;;
1563;SDS011;775;51.958;7.976;2023-08-20T03:50:51;20.33;;;8.00;;
1563;SDS011;775;51.958;7.976;2023-08-20T03:53:18;22.20;;;8.50;;
1563;SDS011;775;51.958;7.976;2023-08-20T03:55:47;21.33;;;9.40;;
1563;SDS011;775;51.958;7.976;2023-08-20T03:58:14;23.70;;;8.80;;
1563;SDS011;775;51.958;7.976;2023-08-20T04:00:41;23.30;;;9.13;;
1563;SDS011;775;51.958;7.976;2023-08-20T04:03:10;22.90;;;9.53;;
1563;SDS011;775;51.958;7.976;2023-08-20T04:05:37;20.90;;;8.10;;
1563;SDS011;775;51.958;7.976;2023-08-20T04:08:05;21.53;;;8.93;;
1563;SDS011;775;51.958;7.976;2023-08-20T04:10:32;21.87;;;9.13;;
1563;SDS011;775;51.958;7.976;2023-08-20T04:12:59;22.27;;;9.40;;
1563;SDS011;775;51.958;7.976;2023-08-20T04:15:26;22.47;;;8.80;;
1563;SDS011;775;51.958;7.976;2023-08-20T04:17:53;19.43;;;8.77;;
1563;SDS011;775;51.958;7.976;2023-08-20T04:20:22;20.07;;;8.10;;
1563;SDS011;775;51.958;7.976;2023-08-20T04:22:49;21.20;;;7.90;;
1563;SDS011;775;51.958;7.976;2023-08-20T04:25:16;21.50;;;8.30;;
1563;SDS011;775;51.958;7.976;2023-08-20T04:27:43;20.00;;;7.97;;
1563;SDS011;775;51.958;7.976;2023-08-20T04:30:11;17.43;;;7.53;;
1563;SDS011;775;51.958;7.976;2023-08-20T04:32:38;19.73;;;7.77;;
1563;SDS011;775;51.958;7.976;2023-08-20T04:35:05;19.80;;;8.73;;
1563;SDS011;775;51.958;7.976;2023-08-20T04:37:34;23.07;;;7.80;;
1563;SDS011;775;51.958;7.976;2023-08-20T04:40:01;20.00;;;8.70;;
1563;SDS011;775;51.958;7.976;2023-08-20T04:42:29;26.47;;;8.23;;
1563;SDS011;775;51.958;7.976;2023-08-20T04:44:56;19.23;;;8.50;;
1563;SDS011;775;51.958;7.976;2023-08-20T04:47:23;19.97;;;7.77;;
1563;SDS011;775;51.958;7.976;2023-08-20T04:49:51;19.93;;;6.80;;
1563;SDS011;775;51.958;7.976;2023-08-20T04:52:18;19.20;;;7.60;;
1563;SDS011;775;51.958;7.976;2023-08-20T04:54:47;20.83;;;7.43;;
1563;SDS011;775;51.958;7.976;2023-08-20T04:57:14;24.03;;;8.17;;
1563;SDS011;775;51.958;7.976;2023-08-20T04:59:41;21.20;;;6.73;;
1563;SDS011;775;51.958;7.976;2023-08-20T05:02:10;19.13;;;6.70;;
1563;SDS011;775;51.958;7.976;2023-08-20T05:04:37;19.87;;;6.60;;
1563;SDS011;775;51.958;7.976;2023-08-20T05:07:04;22.27;;;6.87;;
1563;SDS011;775;51.958;7.976;2023-08-20T05:09:32;18.13;;;6.43;;
1563;SDS011;775;51.958;7.976;2023-08-20T05:12:00;19.70;;;5.83;;
1563;SDS011;775;51.958;7.976;2023-08-20T05:14:28;17.87;;;5.83;;
1563;SDS011;775;51.958;7.976;2023-08-20T05:16:56;17.80;;;5.83;;
1563;SDS011;775;51.958;7.976;2023-08-20T05:19:23;18.00;;;6.50;;
1563;SDS011;775;51.958;7.976;2023-08-20T05:21:50;18.47;;;5.50;;
1563;SDS011;775;51.958;7.976;2023-08-20T05:24:20;16.87;;;5.80;;
1563;SDS011;775;51.958;7.976;2023-08-20T05:26:49;19.60;;;6.20;;
1563;SDS011;775;51.958;7.976;2023-08-20T05:29:18;19.40;;;6.57;;
1563;SDS011;775;51.958;7.976;2023-08-20T05:31:45;19.00;;;6.13;;
1563;SDS011;775;51.958;7.976;2023-08-20T05:34:12;17.63;;;5.80;;
1563;SDS011;775;51.958;7.976;2023-08-20T05:36:39;20.93;;;6.70;;
1563;SDS011;775;51.958;7.976;2023-08-20T05:39:06;20.47;;;5.97;;
1563;SDS011;775;51.958;7.976;2023-08-20T05:41:33;20.13;;;7.00;;
1563;SDS011;775;51.958;7.976;2023-08-20T05:44:00;19.70;;;7.17;;
1563;SDS011;775;51.958;7.976;2023-08-20T05:46:28;19.77;;;6.67;;
1563;SDS011;775;51.958;7.976;2023-08-20T05:48:56;17.27;;;6.13;;
1563;SDS011;775;51.958;7.976;2023-08-20T05:51:23;19.40;;;6.13;;
1563;SDS011;775;51.958;7.976;2023-08-20T05:53:50;19.93;;;6.90;;
1563;SDS011;775;51.958;7.976;2023-08-20T05:56:17;22.40;;;7.70;;
1563;SDS011;775;51.958;7.976;2023-08-20T05:58:44;19.50;;;7.77;;
1563;SDS011;775;51.958;7.976;2023-08-20T06:01:11;21.00;;;7.20;;
1563;SDS011;775;51.958;7.976;2023-08-20T06:03:39;20.67;;;6.47;;
1563;SDS011;775;51.958;7.976;2023-08-20T06:06:06;22.50;;;6.70;;
1563;SDS011;775;51.958;7.976;2023-08-20T06:08:34;19.50;;;5.60;;
1563;SDS011;775;51.958;7.976;2023-08-20T06:11:01;17.37;;;6.47;;
1563;SDS011;775;51.958;7.976;2023-08-20T06:13:28;16.43;;;5.50;;
1563;SDS011;775;51.958;7.976;2023-08-20T06:15:55;19.40;;;6.67;;
1563;SDS011;775;51.958;7.976;2023-08-20T06:18:22;17.80;;;5.60;;
1563;SDS011;775;51.958;7.976;2023-08-20T06:20:50;19.77;;;6.20;;
1563;SDS011;775;51.958;7.976;2023-08-20T06:23:17;16.73;;;4.63;;
1563;SDS011;775;51.958;7.976;2023-08-20T06:25:44;18.80;;;6.03;;
1563;SDS011;775;51.958;7.976;2023-08-20T06:28:11;19.40;;;7.13;;
1563;SDS011;775;51.958;7.976;2023-08-20T06:30:39;22.17;;;6.70;;
1563;SDS011;775;51.958;7.976;2023-08-20T06:33:06;21.47;;;6.47;;
1563;SDS011;775;51.958;7.976;2023-08-20T06:35:33;21.67;;;6.87;;
1563;SDS011;775;51.958;7.976;2023-08-20T06:38:02;20.50;;;6.87;;
1563;SDS011;775;51.958;7.976;2023-08-20T06:40:29;18.60;;;6.50;;
1563;SDS011;775;51.958;7.976;2023-08-20T06:42:56;18.77;;;6.73;;
1563;SDS011;775;51.958;7.976;2023-08-20T06:45:23;19.63;;;6.60;;
1563;SDS011;775;51.958;7.976;2023-08-20T06:47:50;18.13;;;6.70;;
1563;SDS011;775;51.958;7.976;2023-08-20T06:50:17;18.33;;;7.40;;
1563;SDS011;775;51.958;7.976;2023-08-20T06:52:44;19.97;;;7.57;;
1563;SDS011;775;51.958;7.976;2023-08-20T06:55:13;17.80;;;6.07;;
1563;SDS011;775;51.958;7.976;2023-08-20T06:57:40;21.20;;;7.00;;
1563;SDS011;775;51.958;7.976;2023-08-20T07:00:07;19.10;;;6.97;;
1563;SDS011;775;51.958;7.976;2023-08-20T07:02:34;18.77;;;6.00;;
1563;SDS011;775;51.958;7.976;2023-08-20T07:05:01;16.53;;;5.63;;
1563;SDS011;775;51.958;7.976;2023-08-20T07:07:28;19.37;;;6.83;;
1563;SDS011;775;51.958;7.976;2023-08-20T07:09:56;17.20;;;6.00;;
1563;SDS011;775;51.958;7.976;2023-08-20T07:12:24;17.57;;;6.47;;
1563;SDS011;775;51.958;7.976;2023-08-20T07:14:51;19.10;;;5.73;;
1563;SDS011;775;51.958;7.976;2023-08-20T07:17:18;17.07;;;5.70;;
1563;SDS011;775;51.958;7.976;2023-08-20T07:19:45;17.50;;;6.20;;
1563;SDS011;775;51.958;7.976;2023-08-20T07:22:12;16.50;;;6.20;;
1563;SDS011;775;51.958;7.976;2023-08-20T07:24:39;17.37;;;6.17;;
1563;SDS011;775;51.958;7.976;2023-08-20T07:27:06;16.90;;;5.20;;
1563;SDS011;775;51.958;7.976;2023-08-20T07:29:40;17.87;;;5.30;;
1563;SDS011;775;51.958;7.976;2023-08-20T07:32:07;17.60;;;6.60;;
1563;SDS011;775;51.958;7.976;2023-08-20T07:34:34;17.90;;;6.03;;
1563;SDS011;775;51.958;7.976;2023-08-20T07:37:01;21.13;;;7.70;;
1563;SDS011;775;51.958;7.976;2023-08-20T07:39:30;20.13;;;6.70;;
1563;SDS011;775;51.958;7.976;2023-08-20T07:41:57;18.13;;;6.30;;
1563;SDS011;775;51.958;7.976;2023-08-20T07:44:24;18.20;;;6.60;;
1563;SDS011;775;51.958;7.976;2023-08-20T07:46:52;16.37;;;4.97;;
1563;SDS011;775;51.958;7.976;2023-08-20T07:49:19;17.10;;;5.60;;
1563;SDS011;775;51.958;7.976;2023-08-20T07:51:46;21.27;;;8.43;;
1563;SDS011;775;51.958;7.976;2023-08-20T07:54:17;21.73;;;8.87;;
1563;SDS011;775;51.958;7.976;2023-08-20T07:56:44;20.60;;;9.03;;
1563;SDS011;775;51.958;7.976;2023-08-20T07:59:11;17.63;;;7.23;;
1563;SDS011;775;51.958;7.976;2023-08-20T08:01:38;19.40;;;6.90;;
1563;SDS011;775;51.958;7.976;2023-08-20T08:04:07;17.13;;;6.80;;
1563;SDS011;775;51.958;7.976;2023-08-20T08:06:34;20.70;;;5.87;;
1563;SDS011;775;51.958;7.976;2023-08-20T08:11:43;21.93;;;6.80;;
1563;SDS011;775;51.958;7.976;2023-08-20T08:14:10;19.37;;;7.60;;
1563;SDS011;775;51.958;7.976;2023-08-20T08:16:37;17.47;;;6.63;;
1563;SDS011;775;51.958;7.976;2023-08-20T08:19:04;18.87;;;7.20;;
1563;SDS011;775;51.958;7.976;2023-08-20T08:21:33;19.27;;;6.60;;
1563;SDS011;775;51.958;7.976;2023-08-20T08:24:00;21.20;;;9.80;;
1563;SDS011;775;51.958;7.976;2023-08-20T08:26:27;18.83;;;6.97;;
1563;SDS011;775;51.958;7.976;2023-08-20T08:28:54;20.70;;;7.50;;
1563;SDS011;775;51.958;7.976;2023-08-20T08:31:21;20.03;;;7.60;;
1563;SDS011;775;51.958;7.976;2023-08-20T08:33:49;22.80;;;10.30;;
1563;SDS011;775;51.958;7.976;2023-08-20T08:36:16;21.13;;;8.00;;
1563;SDS011;775;51.958;7.976;2023-08-20T08:38:44;25.50;;;11.50;;
1563;SDS011;775;51.958;7.976;2023-08-20T08:41:12;24.27;;;10.97;;
1563;SDS011;775;51.958;7.976;2023-08-20T08:43:39;28.50;;;11.00;;
1563;SDS011;775;51.958;7.976;2023-08-20T08:46:06;20.33;;;9.30;;
1563;SDS011;775;51.958;7.976;2023-08-20T08:48:34;29.80;;;15.97;;
1563;SDS011;775;51.958;7.976;2023-08-20T08:51:01;27.57;;;15.00;;
1563;SDS011;775;51.958;7.976;2023-08-20T08:53:28;24.37;;;12.30;;
1563;SDS011;775;51.958;7.976;2023-08-20T08:55:58;27.30;;;13.03;;
1563;SDS011;775;51.958;7.976;2023-08-20T08:58:26;27.53;;;14.30;;
1563;SDS011;775;51.958;7.976;2023-08-20T09:00:53;30.07;;;17.67;;
1563;SDS011;775;51.958;7.976;2023-08-20T09:03:20;32.20;;;17.83;;
1563;SDS011;775;51.958;7.976;2023-08-20T09:05:49;34.37;;;18.57;;
1563;SDS011;775;51.958;7.976;2023-08-20T09:08:20;32.20;;;17.77;;
1563;SDS011;775;51.958;7.976;2023-08-20T09:10:49;26.93;;;15.43;;
1563;SDS011;775;51.958;7.976;2023-08-20T09:13:17;23.77;;;11.60;;
1563;SDS011;775;51.958;7.976;2023-08-20T09:15:45;28.30;;;15.77;;
1563;SDS011;775;51.958;7.976;2023-08-20T09:18:12;27.77;;;16.50;;
1563;SDS011;775;51.958;7.976;2023-08-20T09:20:40;31.77;;;16.73;;
1563;SDS011;775;51.958;7.976;2023-08-20T09:23:10;29.40;;;17.27;;
1563;SDS011;775;51.958;7.976;2023-08-20T09:25:38;30.23;;;16.83;;
1563;SDS011;775;51.958;7.976;2023-08-20T09:28:05;30.10;;;17.63;;
1563;SDS011;775;51.958;7.976;2023-08-20T09:30:34;28.90;;;16.27;;
1563;SDS011;775;51.958;7.976;2023-08-20T09:33:04;30.77;;;18.97;;
1563;SDS011;775;51.958;7.976;2023-08-20T09:35:31;30.23;;;17.17;;
1563;SDS011;775;51.958;7.976;2023-08-20T09:37:59;32.20;;;16.53;;
1563;SDS011;775;51.958;7.976;2023-08-20T09:40:26;31.30;;;17.23;;
1563;SDS011;775;51.958;7.976;2023-08-20T09:42:54;29.77;;;15.80;;
1563;SDS011;775;51.958;7.976;2023-08-20T09:45:21;29.10;;;14.67;;
1563;SDS011;775;51.958;7.976;2023-08-20T09:47:50;26.73;;;14.70;;
1563;SDS011;775;51.958;7.976;2023-08-20T09:50:21;27.23;;;15.70;;
1563;SDS011;775;51.958;7.976;2023-08-20T09:52:51;26.07;;;14.80;;
1563;SDS011;775;51.958;7.976;2023-08-20T09:55:20;30.00;;;13.43;;
1563;SDS011;775;51.958;7.976;2023-08-20T09:57:48;27.23;;;12.40;;
1563;SDS011;775;51.958;7.976;2023-08-20T10:00:15;23.57;;;12.27;;
1563;SDS011;775;51.958;7.976;2023-08-20T10:02:42;25.37;;;11.83;;
1563;SDS011;775;51.958;7.976;2023-08-20T10:05:11;22.53;;;11.73;;
1563;SDS011;775;51.958;7.976;2023-08-20T10:07:40;21.77;;;10.03;;
1563;SDS011;775;51.958;7.976;2023-08-20T10:10:09;22.97;;;11.60;;
1563;SDS011;775;51.958;7.976;2023-08-20T10:12:38;23.77;;;11.70;;
1563;SDS011;775;51.958;7.976;2023-08-20T10:15:06;26.00;;;14.83;;
1563;SDS011;775;51.958;7.976;2023-08-20T10:17:34;27.80;;;13.67;;
1563;SDS011;775;51.958;7.976;2023-08-20T10:20:02;24.37;;;13.30;;
1563;SDS011;775;51.958;7.976;2023-08-20T10:22:35;23.60;;;11.97;;
1563;SDS011;775;51.958;7.976;2023-08-20T10:25:04;28.00;;;13.40;;
1563;SDS011;775;51.958;7.976;2023-08-20T10:27:33;22.57;;;11.67;;
1563;SDS011;775;51.958;7.976;2023-08-20T10:30:01;21.90;;;12.10;;
1563;SDS011;775;51.958;7.976;2023-08-20T10:32:44;27.03;;;13.17;;
1563;SDS011;775;51.958;7.976;2023-08-20T10:35:11;23.60;;;12.37;;
1563;SDS011;775;51.958;7.976;2023-08-20T10:37:40;22.30;;;10.23;;
1563;SDS011;775;51.958;7.976;2023-08-20T10:43:23;21.97;;;10.87;;
1563;SDS011;775;51.958;7.976;2023-08-20T10:46:01;20.90;;;10.33;;
1563;SDS011;775;51.958;7.976;2023-08-20T10:48:29;18.27;;;8.20;;
1563;SDS011;775;51.958;7.976;2023-08-20T10:50:56;20.50;;;9.40;;
1563;SDS011;775;51.958;7.976;2023-08-20T10:53:25;19.93;;;9.23;;
1563;SDS011;775;51.958;7.976;2023-08-20T10:55:52;20.87;;;9.03;;
1563;SDS011;775;51.958;7.976;2023-08-20T10:58:23;20.10;;;8.53;;
1563;SDS011;775;51.958;7.976;2023-08-20T11:03:32;19.67;;;8.10;;
1563;SDS011;775;51.958;7.976;2023-08-20T11:05:59;18.43;;;7.53;;
1563;SDS011;775;51.958;7.976;2023-08-20T11:08:28;20.40;;;8.07;;
1563;SDS011;775;51.958;7.976;2023-08-20T11:10:55;20.07;;;8.87;;
1563;SDS011;775;51.958;7.976;2023-08-20T11:13:22;19.60;;;9.13;;
1563;SDS011;775;51.958;7.976;2023-08-20T11:15:49;18.30;;;8.00;;
1563;SDS011;775;51.958;7.976;2023-08-20T11:18:16;17.50;;;7.53;;
1563;SDS011;775;51.958;7.976;2023-08-20T11:20:43;19.73;;;8.63;;
1563;SDS011;775;51.958;7.976;2023-08-20T11:23:11;20.70;;;7.60;;
1563;SDS011;775;51.958;7.976;2023-08-20T11:25:41;18.30;;;6.30;;
1563;SDS011;775;51.958;7.976;2023-08-20T11:28:09;19.43;;;7.33;;
1563;SDS011;775;51.958;7.976;2023-08-20T11:30:36;18.50;;;6.57;;
1563;SDS011;775;51.958;7.976;2023-08-20T11:33:03;16.93;;;6.50;;
1563;SDS011;775;51.958;7.976;2023-08-20T11:35:30;17.60;;;6.30;;
1563;SDS011;775;51.958;7.976;2023-08-20T11:37:58;19.53;;;7.10;;
1563;SDS011;775;51.958;7.976;2023-08-20T11:40:25;19.27;;;7.00;;
1563;SDS011;775;51.958;7.976;2023-08-20T11:42:53;18.20;;;7.23;;
1563;SDS011;775;51.958;7.976;2023-08-20T11:45:20;18.57;;;8.00;;
1563;SDS011;775;51.958;7.976;2023-08-20T11:47:47;18.50;;;7.30;;
1563;SDS011;775;51.958;7.976;2023-08-20T11:50:14;18.60;;;6.90;;
1563;SDS011;775;51.958;7.976;2023-08-20T11:52:42;20.60;;;7.80;;
1563;SDS011;775;51.958;7.976;2023-08-20T11:55:09;20.97;;;7.93;;
1563;SDS011;775;51.958;7.976;2023-08-20T11:57:36;18.70;;;7.20;;
1563;SDS011;775;51.958;7.976;2023-08-20T12:00:05;20.33;;;8.10;;
1563;SDS011;775;51.958;7.976;2023-08-20T12:02:34;17.63;;;7.47;;
1563;SDS011;775;51.958;7.976;2023-08-20T12:05:02;17.40;;;7.20;;
1563;SDS011;775;51.958;7.976;2023-08-20T12:07:29;16.77;;;7.00;;
1563;SDS011;775;51.958;7.976;2023-08-20T12:09:56;17.83;;;7.70;;
1563;SDS011;775;51.958;7.976;2023-08-20T12:12:23;21.27;;;8.60;;
1563;SDS011;775;51.958;7.976;2023-08-20T12:14:50;18.70;;;6.57;;
1563;SDS011;775;51.958;7.976;2023-08-20T12:17:18;17.83;;;7.20;;
1563;SDS011;775;51.958;7.976;2023-08-20T12:19:46;17.80;;;6.80;;
1563;SDS011;775;51.958;7.976;2023-08-20T12:22:13;16.50;;;6.20;;
1563;SDS011;775;51.958;7.976;2023-08-20T12:24:40;16.43;;;6.33;;
1563;SDS011;775;51.958;7.976;2023-08-20T12:27:07;17.17;;;6.80;;
1563;SDS011;775;51.958;7.976;2023-08-20T12:29:34;18.03;;;6.60;;
1563;SDS011;775;51.958;7.976;2023-08-20T12:32:01;18.20;;;6.20;;
1563;SDS011;775;51.958;7.976;2023-08-20T12:34:33;17.00;;;5.67;;
1563;SDS011;775;51.958;7.976;2023-08-20T12:37:00;16.97;;;5.77;;
1563;SDS011;775;51.958;7.976;2023-08-20T12:39:27;16.17;;;4.83;;
1563;SDS011;775;51.958;7.976;2023-08-20T12:41:55;15.77;;;5.23;;
1563;SDS011;775;51.958;7.976;2023-08-20T12:44:22;16.70;;;4.97;;
1563;SDS011;775;51.958;7.976;2023-08-20T12:46:49;17.40;;;5.77;;
1563;SDS011;775;51.958;7.976;2023-08-20T12:49:17;17.40;;;5.50;;
1563;SDS011;775;51.958;7.976;2023-08-20T12:51:45;16.97;;;5.43;;
1563;SDS011;775;51.958;7.976;2023-08-20T12:54:13;15.70;;;5.23;;
1563;SDS011;775;51.958;7.976;2023-08-20T12:56:40;17.50;;;5.17;;
1563;SDS011;775;51.958;7.976;2023-08-20T12:59:07;18.63;;;5.77;;
1563;SDS011;775;51.958;7.976;2023-08-20T13:01:35;16.40;;;5.07;;
1563;SDS011;775;51.958;7.976;2023-08-20T13:04:02;17.50;;;6.27;;
1563;SDS011;775;51.958;7.976;2023-08-20T13:06:30;15.67;;;5.80;;
1563;SDS011;775;51.958;7.976;2023-08-20T13:08:58;20.30;;;6.40;;
1563;SDS011;775;51.958;7.976;2023-08-20T13:11:26;15.53;;;5.57;;
1563;SDS011;775;51.958;7.976;2023-08-20T13:13:56;15.90;;;4.60;;
1563;SDS011;775;51.958;7.976;2023-08-20T13:16:23;16.20;;;5.60;;
1563;SDS011;775;51.958;7.976;2023-08-20T13:18:51;18.23;;;6.90;;
1563;SDS011;775;51.958;7.976;2023-08-20T13:21:18;16.63;;;5.93;;
1563;SDS011;775;51.958;7.976;2023-08-20T13:23:46;17.37;;;6.90;;
1563;SDS011;775;51.958;7.976;2023-08-20T13:26:15;18.33;;;6.40;;
1563;SDS011;775;51.958;7.976;2023-08-20T13:28:43;18.00;;;6.90;;
1563;SDS011;775;51.958;7.976;2023-08-20T13:31:10;17.93;;;6.90;;
1563;SDS011;775;51.958;7.976;2023-08-20T13:33:37;16.60;;;6.30;;
1563;SDS011;775;51.958;7.976;2023-08-20T13:36:04;16.50;;;6.27;;
1563;SDS011;775;51.958;7.976;2023-08-20T13:38:32;18.50;;;6.97;;
1563;SDS011;775;51.958;7.976;2023-08-20T13:40:59;16.40;;;6.53;;
1563;SDS011;775;51.958;7.976;2023-08-20T13:43:27;18.33;;;7.03;;
1563;SDS011;775;51.958;7.976;2023-08-20T13:45:54;17.07;;;6.90;;
1563;SDS011;775;51.958;7.976;2023-08-20T13:48:21;17.17;;;7.20;;
1563;SDS011;775;51.958;7.976;2023-08-20T13:50:49;16.33;;;6.80;;
1563;SDS011;775;51.958;7.976;2023-08-20T13:53:16;18.67;;;7.70;;
1563;SDS011;775;51.958;7.976;2023-08-20T13:55:43;18.13;;;7.97;;
1563;SDS011;775;51.958;7.976;2023-08-20T13:58:10;17.13;;;7.17;;
1563;SDS011;775;51.958;7.976;2023-08-20T14:00:39;17.70;;;7.73;;
1563;SDS011;775;51.958;7.976;2023-08-20T14:03:07;21.17;;;7.87;;
1563;SDS011;775;51.958;7.976;2023-08-20T14:05:34;17.07;;;6.93;;
1563;SDS011;775;51.958;7.976;2023-08-20T14:08:01;18.23;;;8.33;;
1563;SDS011;775;51.958;7.976;2023-08-20T14:10:28;18.13;;;7.47;;
1563;SDS011;775;51.958;7.976;2023-08-20T14:12:55;20.10;;;8.17;;
1563;SDS011;775;51.958;7.976;2023-08-20T14:15:22;18.60;;;8.00;;
1563;SDS011;775;51.958;7.976;2023-08-20T14:17:50;18.37;;;7.53;;
1563;SDS011;775;51.958;7.976;2023-08-20T14:20:18;18.40;;;7.90;;
1563;SDS011;775;51.958;7.976;2023-08-20T14:22:45;18.03;;;8.20;;
1563;SDS011;775;51.958;7.976;2023-08-20T14:25:12;18.30;;;8.03;;
1563;SDS011;775;51.958;7.976;2023-08-20T14:27:39;19.70;;;7.80;;
1563;SDS011;775;51.958;7.976;2023-08-20T14:30:06;19.00;;;7.57;;
1563;SDS011;775;51.958;7.976;2023-08-20T14:32:35;18.97;;;8.00;;
1563;SDS011;775;51.958;7.976;2023-08-20T14:35:04;18.40;;;7.00;;
1563;SDS011;775;51.958;7.976;2023-08-20T14:37:31;17.17;;;6.83;;
1563;SDS011;775;51.958;7.976;2023-08-20T14:39:58;21.60;;;7.60;;
1563;SDS011;775;51.958;7.976;2023-08-20T14:42:25;20.07;;;7.87;;
1563;SDS011;775;51.958;7.976;2023-08-20T14:44:53;21.50;;;8.60;;
1563;SDS011;775;51.958;7.976;2023-08-20T14:47:20;20.00;;;8.30;;
1563;SDS011;775;51.958;7.976;2023-08-20T14:49:47;21.93;;;9.00;;
1563;SDS011;775;51.958;7.976;2023-08-20T14:52:16;18.23;;;8.00;;
1563;SDS011;775;51.958;7.976;2023-08-20T14:54:43;19.73;;;8.53;;
1563;SDS011;775;51.958;7.976;2023-08-20T14:57:11;19.50;;;9.37;;
1563;SDS011;775;51.958;7.976;2023-08-20T14:59:38;20.23;;;9.57;;
1563;SDS011;775;51.958;7.976;2023-08-20T15:02:05;19.13;;;9.43;;
1563;SDS011;775;51.958;7.976;2023-08-20T15:04:32;23.30;;;9.17;;
1563;SDS011;775;51.958;7.976;2023-08-20T15:06:59;18.30;;;8.43;;
1563;SDS011;775;51.958;7.976;2023-08-20T15:09:28;20.17;;;9.77;;
1563;SDS011;775;51.958;7.976;2023-08-20T15:11:55;20.53;;;9.03;;
1563;SDS011;775;51.958;7.976;2023-08-20T15:14:22;18.07;;;8.70;;
1563;SDS011;775;51.958;7.976;2023-08-20T15:16:49;21.47;;;9.50;;
1563;SDS011;775;51.958;7.976;2023-08-20T15:19:16;21.57;;;8.60;;
1563;SDS011;775;51.958;7.976;2023-08-20T15:21:43;18.83;;;8.73;;
1563;SDS011;775;51.958;7.976;2023-08-20T15:24:11;20.17;;;9.23;;